sensor_id;sensor_type;location;lat;lon;timestamp;P1;durP1;ratioP1;P2;durP2;ratioP2
79755;SDS011;69239;50.678;12.280;2023-06-10T00:02:10;10.63;;;7.38;;
79755;SDS011;69239;50.678;12.280;2023-06-10T00:04:36;9.73;;;7.50;;
79755;SDS011;69239;50.678;12.280;2023-06-10T00:07:04;11.57;;;8.52;;
79755;SDS011;69239;50.678;12.280;2023-06-10T00:09:37;10.23;;;8.23;;
79755;SDS011;69239;50.678;12.280;2023-06-10T00:12:05;9.13;;;7.97;;
79755;SDS011;69239;50.678;12.280;2023-06-10T00:14:36;12.20;;;7.97;;
79755;SDS011;69239;50.678;12.280;2023-06-10T00:17:03;10.23;;;7.78;;
79755;SDS011;69239;50.678;12.280;2023-06-10T00:19:28;9.65;;;8.45;;
79755;SDS011;69239;50.678;12.280;2023-06-10T00:21:57;10.38;;;7.68;;
79755;SDS011;69239;50.678;12.280;2023-06-10T00:24:22;8.55;;;7.47;;
79755;SDS011;69239;50.678;12.280;2023-06-10T00:26:48;11.68;;;8.10;;
79755;SDS011;69239;50.678;12.280;2023-06-10T00:29:13;8.40;;;7.60;;
79755;SDS011;69239;50.678;12.280;2023-06-10T00:31:39;8.70;;;7.68;;
79755;SDS011;69239;50.678;12.280;2023-06-10T00:34:05;10.82;;;8.05;;
79755;SDS011;69239;50.678;12.280;2023-06-10T00:36:31;8.18;;;7.35;;
79755;SDS011;69239;50.678;12.280;2023-06-10T00:38:56;12.13;;;8.15;;
79755;SDS011;69239;50.678;12.280;2023-06-10T00:41:22;9.15;;;7.93;;
79755;SDS011;69239;50.678;12.280;2023-06-10T00:43:48;8.35;;;7.47;;
79755;SDS011;69239;50.678;12.280;2023-06-10T00:46:13;9.02;;;8.13;;
79755;SDS011;69239;50.678;12.280;2023-06-10T00:48:40;12.48;;;8.65;;
79755;SDS011;69239;50.678;12.280;2023-06-10T00:51:06;9.80;;;8.77;;
79755;SDS011;69239;50.678;12.280;2023-06-10T00:53:34;11.40;;;8.27;;
79755;SDS011;69239;50.678;12.280;2023-06-10T00:56:00;8.75;;;7.20;;
79755;SDS011;69239;50.678;12.280;2023-06-10T00:58:26;9.73;;;7.15;;
79755;SDS011;69239;50.678;12.280;2023-06-10T01:00:52;7.28;;;6.45;;
79755;SDS011;69239;50.678;12.280;2023-06-10T01:03:18;10.40;;;8.23;;
79755;SDS011;69239;50.678;12.280;2023-06-10T01:05:43;12.05;;;8.80;;
79755;SDS011;69239;50.678;12.280;2023-06-10T01:10:43;8.85;;;7.82;;
79755;SDS011;69239;50.678;12.280;2023-06-10T01:13:18;10.35;;;8.57;;
79755;SDS011;69239;50.678;12.280;2023-06-10T01:15:45;11.63;;;9.07;;
79755;SDS011;69239;50.678;12.280;2023-06-10T01:18:10;11.23;;;8.70;;
79755;SDS011;69239;50.678;12.280;2023-06-10T01:20:40;10.93;;;9.60;;
79755;SDS011;69239;50.678;12.280;2023-06-10T01:23:07;10.38;;;9.27;;
79755;SDS011;69239;50.678;12.280;2023-06-10T01:25:38;11.48;;;9.48;;
79755;SDS011;69239;50.678;12.280;2023-06-10T01:31:06;9.52;;;8.00;;
79755;SDS011;69239;50.678;12.280;2023-06-10T01:33:39;9.75;;;8.43;;
79755;SDS011;69239;50.678;12.280;2023-06-10T01:36:08;10.02;;;7.75;;
79755;SDS011;69239;50.678;12.280;2023-06-10T01:38:39;7.63;;;6.63;;
79755;SDS011;69239;50.678;12.280;2023-06-10T01:41:07;8.98;;;8.02;;
79755;SDS011;69239;50.678;12.280;2023-06-10T01:43:33;11.00;;;8.75;;
79755;SDS011;69239;50.678;12.280;2023-06-10T01:45:59;12.15;;;10.40;;
79755;SDS011;69239;50.678;12.280;2023-06-10T01:48:25;10.98;;;8.25;;
79755;SDS011;69239;50.678;12.280;2023-06-10T01:50:50;10.60;;;8.30;;
79755;SDS011;69239;50.678;12.280;2023-06-10T01:53:15;10.75;;;8.23;;
79755;SDS011;69239;50.678;12.280;2023-06-10T01:55:41;11.82;;;8.88;;
79755;SDS011;69239;50.678;12.280;2023-06-10T01:58:06;10.33;;;6.93;;
79755;SDS011;69239;50.678;12.280;2023-06-10T02:00:31;11.07;;;7.70;;
79755;SDS011;69239;50.678;12.280;2023-06-10T02:02:57;13.43;;;8.80;;
79755;SDS011;69239;50.678;12.280;2023-06-10T02:05:22;11.07;;;9.13;;
79755;SDS011;69239;50.678;12.280;2023-06-10T02:07:48;11.38;;;9.68;;
79755;SDS011;69239;50.678;12.280;2023-06-10T02:10:13;11.93;;;10.23;;
79755;SDS011;69239;50.678;12.280;2023-06-10T02:12:38;18.77;;;10.10;;
79755;SDS011;69239;50.678;12.280;2023-06-10T02:15:04;11.38;;;9.57;;
79755;SDS011;69239;50.678;12.280;2023-06-10T02:17:29;13.48;;;10.38;;
79755;SDS011;69239;50.678;12.280;2023-06-10T02:19:55;8.88;;;7.25;;
79755;SDS011;69239;50.678;12.280;2023-06-10T02:22:22;10.77;;;8.93;;
79755;SDS011;69239;50.678;12.280;2023-06-10T02:24:48;11.52;;;9.45;;
79755;SDS011;69239;50.678;12.280;2023-06-10T02:27:14;10.98;;;8.63;;
79755;SDS011;69239;50.678;12.280;2023-06-10T02:29:40;10.98;;;9.18;;
79755;SDS011;69239;50.678;12.280;2023-06-10T02:32:06;11.73;;;8.90;;
79755;SDS011;69239;50.678;12.280;2023-06-10T02:34:32;12.60;;;9.15;;
79755;SDS011;69239;50.678;12.280;2023-06-10T02:36:58;10.52;;;8.38;;
79755;SDS011;69239;50.678;12.280;2023-06-10T02:39:24;9.23;;;8.27;;
79755;SDS011;69239;50.678;12.280;2023-06-10T02:41:49;9.50;;;8.38;;
79755;SDS011;69239;50.678;12.280;2023-06-10T02:44:14;12.07;;;8.57;;
79755;SDS011;69239;50.678;12.280;2023-06-10T02:46:40;9.40;;;7.97;;
79755;SDS011;69239;50.678;12.280;2023-06-10T02:49:05;10.32;;;8.15;;
79755;SDS011;69239;50.678;12.280;2023-06-10T02:51:30;10.10;;;8.43;;
79755;SDS011;69239;50.678;12.280;2023-06-10T02:53:56;9.63;;;7.67;;
79755;SDS011;69239;50.678;12.280;2023-06-10T02:56:21;11.87;;;9.37;;
79755;SDS011;69239;50.678;12.280;2023-06-10T02:58:46;13.77;;;10.18;;
79755;SDS011;69239;50.678;12.280;2023-06-10T03:01:13;15.25;;;8.95;;
79755;SDS011;69239;50.678;12.280;2023-06-10T03:03:38;13.30;;;9.60;;
79755;SDS011;69239;50.678;12.280;2023-06-10T03:06:08;11.02;;;9.07;;
79755;SDS011;69239;50.678;12.280;2023-06-10T03:08:35;10.77;;;9.63;;
79755;SDS011;69239;50.678;12.280;2023-06-10T03:11:02;12.60;;;9.20;;
79755;SDS011;69239;50.678;12.280;2023-06-10T03:13:27;11.07;;;9.60;;
79755;SDS011;69239;50.678;12.280;2023-06-10T03:15:52;11.32;;;9.80;;
79755;SDS011;69239;50.678;12.280;2023-06-10T03:18:18;10.55;;;9.30;;
79755;SDS011;69239;50.678;12.280;2023-06-10T03:20:43;11.73;;;9.10;;
79755;SDS011;69239;50.678;12.280;2023-06-10T03:23:09;12.00;;;8.60;;
79755;SDS011;69239;50.678;12.280;2023-06-10T03:25:35;9.85;;;7.40;;
79755;SDS011;69239;50.678;12.280;2023-06-10T03:28:00;11.52;;;8.85;;
79755;SDS011;69239;50.678;12.280;2023-06-10T03:30:27;15.68;;;9.50;;
79755;SDS011;69239;50.678;12.280;2023-06-10T03:32:52;10.88;;;8.80;;
79755;SDS011;69239;50.678;12.280;2023-06-10T03:35:18;11.80;;;9.57;;
79755;SDS011;69239;50.678;12.280;2023-06-10T03:37:43;13.10;;;9.98;;
79755;SDS011;69239;50.678;12.280;2023-06-10T03:40:09;12.63;;;9.77;;
79755;SDS011;69239;50.678;12.280;2023-06-10T03:42:35;12.60;;;9.25;;
79755;SDS011;69239;50.678;12.280;2023-06-10T03:45:00;14.50;;;9.90;;
79755;SDS011;69239;50.678;12.280;2023-06-10T03:47:32;11.30;;;10.00;;
79755;SDS011;69239;50.678;12.280;2023-06-10T03:49:58;15.48;;;9.48;;
79755;SDS011;69239;50.678;12.280;2023-06-10T03:52:24;11.77;;;9.13;;
79755;SDS011;69239;50.678;12.280;2023-06-10T03:54:49;10.27;;;9.10;;
79755;SDS011;69239;50.678;12.280;2023-06-10T03:57:15;10.27;;;8.88;;
79755;SDS011;69239;50.678;12.280;2023-06-10T03:59:40;10.63;;;7.77;;
79755;SDS011;69239;50.678;12.280;2023-06-10T04:02:05;13.68;;;8.57;;
79755;SDS011;69239;50.678;12.280;2023-06-10T04:04:31;12.32;;;9.93;;
79755;SDS011;69239;50.678;12.280;2023-06-10T04:06:57;11.20;;;9.75;;
79755;SDS011;69239;50.678;12.280;2023-06-10T04:09:22;13.18;;;9.65;;
79755;SDS011;69239;50.678;12.280;2023-06-10T04:11:48;13.47;;;9.33;;
79755;SDS011;69239;50.678;12.280;2023-06-10T04:14:13;11.73;;;9.68;;
79755;SDS011;69239;50.678;12.280;2023-06-10T04:16:38;12.35;;;10.02;;
79755;SDS011;69239;50.678;12.280;2023-06-10T04:19:04;12.88;;;9.02;;
79755;SDS011;69239;50.678;12.280;2023-06-10T04:21:29;13.68;;;9.90;;
79755;SDS011;69239;50.678;12.280;2023-06-10T04:23:55;14.02;;;9.80;;
79755;SDS011;69239;50.678;12.280;2023-06-10T04:26:20;12.80;;;10.52;;
79755;SDS011;69239;50.678;12.280;2023-06-10T04:28:46;10.23;;;8.48;;
79755;SDS011;69239;50.678;12.280;2023-06-10T04:31:12;10.88;;;8.45;;
79755;SDS011;69239;50.678;12.280;2023-06-10T04:33:37;11.40;;;8.80;;
79755;SDS011;69239;50.678;12.280;2023-06-10T04:36:02;11.83;;;8.63;;
79755;SDS011;69239;50.678;12.280;2023-06-10T04:38:28;15.82;;;9.70;;
79755;SDS011;69239;50.678;12.280;2023-06-10T04:40:55;14.30;;;10.15;;
79755;SDS011;69239;50.678;12.280;2023-06-10T04:43:20;13.43;;;10.07;;
79755;SDS011;69239;50.678;12.280;2023-06-10T04:45:46;10.82;;;9.70;;
79755;SDS011;69239;50.678;12.280;2023-06-10T04:48:12;13.93;;;10.75;;
79755;SDS011;69239;50.678;12.280;2023-06-10T04:50:37;14.20;;;10.07;;
79755;SDS011;69239;50.678;12.280;2023-06-10T04:53:03;11.75;;;9.57;;
79755;SDS011;69239;50.678;12.280;2023-06-10T04:55:29;12.00;;;10.23;;
79755;SDS011;69239;50.678;12.280;2023-06-10T04:57:54;8.87;;;7.57;;
79755;SDS011;69239;50.678;12.280;2023-06-10T05:00:20;11.23;;;8.90;;
79755;SDS011;69239;50.678;12.280;2023-06-10T05:02:45;11.23;;;9.77;;
79755;SDS011;69239;50.678;12.280;2023-06-10T05:05:14;11.77;;;9.40;;
79755;SDS011;69239;50.678;12.280;2023-06-10T05:07:42;15.60;;;10.50;;
79755;SDS011;69239;50.678;12.280;2023-06-10T05:10:08;14.68;;;10.25;;
79755;SDS011;69239;50.678;12.280;2023-06-10T05:12:34;14.50;;;9.60;;
79755;SDS011;69239;50.678;12.280;2023-06-10T05:14:59;13.48;;;9.73;;
79755;SDS011;69239;50.678;12.280;2023-06-10T05:17:24;12.73;;;9.32;;
79755;SDS011;69239;50.678;12.280;2023-06-10T05:19:50;13.35;;;9.27;;
79755;SDS011;69239;50.678;12.280;2023-06-10T05:22:16;11.60;;;8.25;;
79755;SDS011;69239;50.678;12.280;2023-06-10T05:24:43;13.43;;;9.75;;
79755;SDS011;69239;50.678;12.280;2023-06-10T05:27:09;12.90;;;9.88;;
79755;SDS011;69239;50.678;12.280;2023-06-10T05:29:35;11.70;;;8.93;;
79755;SDS011;69239;50.678;12.280;2023-06-10T05:32:00;10.13;;;8.30;;
79755;SDS011;69239;50.678;12.280;2023-06-10T05:34:28;11.02;;;8.07;;
79755;SDS011;69239;50.678;12.280;2023-06-10T05:36:54;16.77;;;8.57;;
79755;SDS011;69239;50.678;12.280;2023-06-10T05:39:19;11.27;;;9.00;;
79755;SDS011;69239;50.678;12.280;2023-06-10T05:41:45;13.75;;;8.55;;
79755;SDS011;69239;50.678;12.280;2023-06-10T05:44:11;11.75;;;8.68;;
79755;SDS011;69239;50.678;12.280;2023-06-10T05:46:36;16.58;;;9.27;;
79755;SDS011;69239;50.678;12.280;2023-06-10T05:49:02;13.02;;;9.93;;
79755;SDS011;69239;50.678;12.280;2023-06-10T05:51:27;13.57;;;9.30;;
79755;SDS011;69239;50.678;12.280;2023-06-10T05:53:53;10.85;;;8.30;;
79755;SDS011;69239;50.678;12.280;2023-06-10T05:56:19;14.38;;;8.80;;
79755;SDS011;69239;50.678;12.280;2023-06-10T05:58:46;10.40;;;8.25;;
79755;SDS011;69239;50.678;12.280;2023-06-10T06:01:11;9.10;;;7.32;;
79755;SDS011;69239;50.678;12.280;2023-06-10T06:03:37;14.05;;;9.13;;
79755;SDS011;69239;50.678;12.280;2023-06-10T06:06:02;12.33;;;8.37;;
79755;SDS011;69239;50.678;12.280;2023-06-10T06:08:28;9.73;;;7.47;;
79755;SDS011;69239;50.678;12.280;2023-06-10T06:10:54;8.85;;;7.30;;
79755;SDS011;69239;50.678;12.280;2023-06-10T06:13:19;8.95;;;7.35;;
79755;SDS011;69239;50.678;12.280;2023-06-10T06:15:44;9.77;;;7.70;;
79755;SDS011;69239;50.678;12.280;2023-06-10T06:18:10;11.57;;;8.02;;
79755;SDS011;69239;50.678;12.280;2023-06-10T06:20:35;10.93;;;7.65;;
79755;SDS011;69239;50.678;12.280;2023-06-10T06:23:01;10.93;;;8.45;;
79755;SDS011;69239;50.678;12.280;2023-06-10T06:25:26;12.27;;;8.45;;
79755;SDS011;69239;50.678;12.280;2023-06-10T06:27:51;14.32;;;8.68;;
79755;SDS011;69239;50.678;12.280;2023-06-10T06:30:17;11.98;;;8.45;;
79755;SDS011;69239;50.678;12.280;2023-06-10T06:32:42;10.98;;;8.20;;
79755;SDS011;69239;50.678;12.280;2023-06-10T06:35:08;8.65;;;7.40;;
79755;SDS011;69239;50.678;12.280;2023-06-10T06:37:33;11.02;;;7.32;;
79755;SDS011;69239;50.678;12.280;2023-06-10T06:39:59;11.32;;;7.05;;
79755;SDS011;69239;50.678;12.280;2023-06-10T06:42:25;10.90;;;8.30;;
79755;SDS011;69239;50.678;12.280;2023-06-10T06:44:50;10.63;;;7.03;;
79755;SDS011;69239;50.678;12.280;2023-06-10T06:47:15;8.57;;;6.82;;
79755;SDS011;69239;50.678;12.280;2023-06-10T06:49:44;11.60;;;7.70;;
79755;SDS011;69239;50.678;12.280;2023-06-10T06:52:13;11.15;;;7.45;;
79755;SDS011;69239;50.678;12.280;2023-06-10T06:54:39;9.90;;;7.30;;
79755;SDS011;69239;50.678;12.280;2023-06-10T06:57:05;9.52;;;7.47;;
79755;SDS011;69239;50.678;12.280;2023-06-10T06:59:32;12.35;;;8.05;;
79755;SDS011;69239;50.678;12.280;2023-06-10T07:01:58;8.75;;;7.03;;
79755;SDS011;69239;50.678;12.280;2023-06-10T07:04:23;9.30;;;7.32;;
79755;SDS011;69239;50.678;12.280;2023-06-10T07:06:49;11.48;;;6.75;;
79755;SDS011;69239;50.678;12.280;2023-06-10T07:09:15;7.35;;;6.00;;
79755;SDS011;69239;50.678;12.280;2023-06-10T07:11:40;10.15;;;6.30;;
79755;SDS011;69239;50.678;12.280;2023-06-10T07:14:06;9.68;;;6.22;;
79755;SDS011;69239;50.678;12.280;2023-06-10T07:16:32;7.38;;;6.00;;
79755;SDS011;69239;50.678;12.280;2023-06-10T07:18:57;9.27;;;6.25;;
79755;SDS011;69239;50.678;12.280;2023-06-10T07:21:22;9.45;;;6.70;;
79755;SDS011;69239;50.678;12.280;2023-06-10T07:23:48;6.93;;;5.65;;
79755;SDS011;69239;50.678;12.280;2023-06-10T07:26:14;7.78;;;5.90;;
79755;SDS011;69239;50.678;12.280;2023-06-10T07:28:40;7.72;;;5.50;;
79755;SDS011;69239;50.678;12.280;2023-06-10T07:31:06;7.85;;;6.47;;
79755;SDS011;69239;50.678;12.280;2023-06-10T07:33:32;8.40;;;6.45;;
79755;SDS011;69239;50.678;12.280;2023-06-10T07:35:57;9.85;;;6.90;;
79755;SDS011;69239;50.678;12.280;2023-06-10T07:38:22;6.97;;;6.15;;
79755;SDS011;69239;50.678;12.280;2023-06-10T07:40:49;7.70;;;6.75;;
79755;SDS011;69239;50.678;12.280;2023-06-10T07:43:15;8.45;;;6.28;;
79755;SDS011;69239;50.678;12.280;2023-06-10T07:45:40;7.97;;;6.00;;
79755;SDS011;69239;50.678;12.280;2023-06-10T07:48:06;9.98;;;7.25;;
79755;SDS011;69239;50.678;12.280;2023-06-10T07:50:32;7.65;;;6.18;;
79755;SDS011;69239;50.678;12.280;2023-06-10T07:52:57;8.20;;;6.20;;
79755;SDS011;69239;50.678;12.280;2023-06-10T07:55:22;7.33;;;6.43;;
79755;SDS011;69239;50.678;12.280;2023-06-10T07:57:48;8.27;;;6.65;;
79755;SDS011;69239;50.678;12.280;2023-06-10T08:00:14;7.43;;;6.28;;
79755;SDS011;69239;50.678;12.280;2023-06-10T08:02:39;8.60;;;5.97;;
79755;SDS011;69239;50.678;12.280;2023-06-10T08:05:05;10.60;;;6.15;;
79755;SDS011;69239;50.678;12.280;2023-06-10T08:07:31;8.68;;;6.80;;
79755;SDS011;69239;50.678;12.280;2023-06-10T08:09:56;10.98;;;6.80;;
79755;SDS011;69239;50.678;12.280;2023-06-10T08:12:22;11.43;;;6.88;;
79755;SDS011;69239;50.678;12.280;2023-06-10T08:14:47;7.72;;;6.55;;
79755;SDS011;69239;50.678;12.280;2023-06-10T08:17:14;9.40;;;6.43;;
79755;SDS011;69239;50.678;12.280;2023-06-10T08:19:39;10.40;;;6.88;;
79755;SDS011;69239;50.678;12.280;2023-06-10T08:22:04;8.63;;;6.38;;
79755;SDS011;69239;50.678;12.280;2023-06-10T08:24:30;7.88;;;6.28;;
79755;SDS011;69239;50.678;12.280;2023-06-10T08:26:56;10.77;;;7.25;;
79755;SDS011;69239;50.678;12.280;2023-06-10T08:29:22;7.65;;;6.18;;
79755;SDS011;69239;50.678;12.280;2023-06-10T08:31:48;11.10;;;6.80;;
79755;SDS011;69239;50.678;12.280;2023-06-10T08:34:16;10.35;;;7.00;;
79755;SDS011;69239;50.678;12.280;2023-06-10T08:36:43;7.97;;;6.10;;
79755;SDS011;69239;50.678;12.280;2023-06-10T08:39:09;12.25;;;6.60;;
79755;SDS011;69239;50.678;12.280;2023-06-10T08:41:35;13.63;;;6.80;;
79755;SDS011;69239;50.678;12.280;2023-06-10T08:44:13;9.88;;;6.78;;
79755;SDS011;69239;50.678;12.280;2023-06-10T08:46:45;9.27;;;7.25;;
79755;SDS011;69239;50.678;12.280;2023-06-10T08:49:15;10.95;;;7.85;;
79755;SDS011;69239;50.678;12.280;2023-06-10T08:51:45;8.32;;;7.22;;
79755;SDS011;69239;50.678;12.280;2023-06-10T08:54:20;9.13;;;6.90;;
79755;SDS011;69239;50.678;12.280;2023-06-10T08:56:48;8.05;;;6.13;;
79755;SDS011;69239;50.678;12.280;2023-06-10T08:59:19;11.00;;;7.10;;
79755;SDS011;69239;50.678;12.280;2023-06-10T09:01:45;8.35;;;6.80;;
79755;SDS011;69239;50.678;12.280;2023-06-10T09:04:11;7.20;;;6.05;;
79755;SDS011;69239;50.678;12.280;2023-06-10T09:06:39;7.78;;;7.00;;
79755;SDS011;69239;50.678;12.280;2023-06-10T09:09:06;8.40;;;7.07;;
79755;SDS011;69239;50.678;12.280;2023-06-10T09:11:32;8.63;;;7.10;;
79755;SDS011;69239;50.678;12.280;2023-06-10T09:13:58;8.30;;;7.05;;
79755;SDS011;69239;50.678;12.280;2023-06-10T09:16:24;9.15;;;6.90;;
79755;SDS011;69239;50.678;12.280;2023-06-10T09:18:52;9.02;;;7.60;;
79755;SDS011;69239;50.678;12.280;2023-06-10T09:21:23;9.88;;;7.47;;
79755;SDS011;69239;50.678;12.280;2023-06-10T09:23:49;9.73;;;6.82;;
79755;SDS011;69239;50.678;12.280;2023-06-10T09:26:15;12.60;;;7.70;;
79755;SDS011;69239;50.678;12.280;2023-06-10T09:28:44;8.73;;;6.55;;
79755;SDS011;69239;50.678;12.280;2023-06-10T09:31:09;11.45;;;7.65;;
79755;SDS011;69239;50.678;12.280;2023-06-10T09:33:37;12.52;;;7.20;;
79755;SDS011;69239;50.678;12.280;2023-06-10T09:36:26;9.02;;;7.43;;
79755;SDS011;69239;50.678;12.280;2023-06-10T09:38:56;9.48;;;7.93;;
79755;SDS011;69239;50.678;12.280;2023-06-10T09:41:33;10.13;;;6.88;;
79755;SDS011;69239;50.678;12.280;2023-06-10T09:44:02;7.65;;;6.55;;
79755;SDS011;69239;50.678;12.280;2023-06-10T09:46:37;8.25;;;7.13;;
79755;SDS011;69239;50.678;12.280;2023-06-10T09:49:02;7.85;;;6.35;;
79755;SDS011;69239;50.678;12.280;2023-06-10T09:51:27;9.30;;;8.15;;
79755;SDS011;69239;50.678;12.280;2023-06-10T09:53:53;9.48;;;7.57;;
79755;SDS011;69239;50.678;12.280;2023-06-10T09:56:19;9.00;;;7.40;;
79755;SDS011;69239;50.678;12.280;2023-06-10T09:58:45;9.45;;;7.75;;
79755;SDS011;69239;50.678;12.280;2023-06-10T10:01:12;12.27;;;8.18;;
79755;SDS011;69239;50.678;12.280;2023-06-10T10:04:02;8.98;;;6.97;;
79755;SDS011;69239;50.678;12.280;2023-06-10T10:06:29;7.80;;;7.00;;
79755;SDS011;69239;50.678;12.280;2023-06-10T10:09:04;7.82;;;7.05;;
79755;SDS011;69239;50.678;12.280;2023-06-10T10:11:36;8.02;;;6.45;;
79755;SDS011;69239;50.678;12.280;2023-06-10T10:14:01;8.27;;;6.88;;
79755;SDS011;69239;50.678;12.280;2023-06-10T10:16:34;8.98;;;7.70;;
79755;SDS011;69239;50.678;12.280;2023-06-10T10:19:12;9.07;;;6.55;;
79755;SDS011;69239;50.678;12.280;2023-06-10T10:22:03;8.13;;;6.70;;
79755;SDS011;69239;50.678;12.280;2023-06-10T10:24:36;6.43;;;5.80;;
79755;SDS011;69239;50.678;12.280;2023-06-10T10:27:07;7.70;;;6.97;;
79755;SDS011;69239;50.678;12.280;2023-06-10T10:29:42;6.30;;;5.70;;
79755;SDS011;69239;50.678;12.280;2023-06-10T10:32:12;8.27;;;5.40;;
79755;SDS011;69239;50.678;12.280;2023-06-10T10:37:36;8.80;;;5.30;;
79755;SDS011;69239;50.678;12.280;2023-06-10T10:40:07;6.93;;;5.50;;
79755;SDS011;69239;50.678;12.280;2023-06-10T10:42:38;7.60;;;5.43;;
79755;SDS011;69239;50.678;12.280;2023-06-10T10:45:05;7.80;;;5.88;;
79755;SDS011;69239;50.678;12.280;2023-06-10T10:47:31;6.63;;;5.18;;
79755;SDS011;69239;50.678;12.280;2023-06-10T10:49:58;10.85;;;6.00;;
79755;SDS011;69239;50.678;12.280;2023-06-10T10:52:25;7.75;;;5.80;;
79755;SDS011;69239;50.678;12.280;2023-06-10T10:54:53;8.02;;;4.95;;
79755;SDS011;69239;50.678;12.280;2023-06-10T10:57:23;6.75;;;5.35;;
79755;SDS011;69239;50.678;12.280;2023-06-10T11:02:33;7.85;;;3.88;;
79755;SDS011;69239;50.678;12.280;2023-06-10T11:05:09;4.65;;;4.13;;
79755;SDS011;69239;50.678;12.280;2023-06-10T11:07:36;5.18;;;4.60;;
79755;SDS011;69239;50.678;12.280;2023-06-10T11:12:42;9.35;;;4.80;;
79755;SDS011;69239;50.678;12.280;2023-06-10T11:15:10;6.25;;;5.10;;
79755;SDS011;69239;50.678;12.280;2023-06-10T11:31:28;6.13;;;5.32;;
79755;SDS011;69239;50.678;12.280;2023-06-10T11:33:58;3.88;;;3.58;;
79755;SDS011;69239;50.678;12.280;2023-06-10T11:36:25;7.10;;;4.70;;
79755;SDS011;69239;50.678;12.280;2023-06-10T11:38:53;7.75;;;4.70;;
79755;SDS011;69239;50.678;12.280;2023-06-10T11:41:21;5.07;;;3.42;;
79755;SDS011;69239;50.678;12.280;2023-06-10T11:43:48;5.03;;;3.53;;
79755;SDS011;69239;50.678;12.280;2023-06-10T11:46:13;5.45;;;3.95;;
79755;SDS011;69239;50.678;12.280;2023-06-10T11:48:39;7.38;;;3.97;;
79755;SDS011;69239;50.678;12.280;2023-06-10T11:51:13;7.43;;;4.03;;
79755;SDS011;69239;50.678;12.280;2023-06-10T11:53:38;7.20;;;4.25;;
79755;SDS011;69239;50.678;12.280;2023-06-10T11:56:04;5.75;;;4.75;;
79755;SDS011;69239;50.678;12.280;2023-06-10T11:58:29;5.45;;;4.30;;
79755;SDS011;69239;50.678;12.280;2023-06-10T12:00:55;8.02;;;4.38;;
79755;SDS011;69239;50.678;12.280;2023-06-10T12:03:26;6.65;;;4.38;;
79755;SDS011;69239;50.678;12.280;2023-06-10T12:06:03;6.50;;;4.40;;
79755;SDS011;69239;50.678;12.280;2023-06-10T12:08:30;6.82;;;4.60;;
79755;SDS011;69239;50.678;12.280;2023-06-10T12:10:56;6.25;;;4.47;;
79755;SDS011;69239;50.678;12.280;2023-06-10T12:13:22;5.60;;;4.72;;
79755;SDS011;69239;50.678;12.280;2023-06-10T12:15:50;6.05;;;4.43;;
79755;SDS011;69239;50.678;12.280;2023-06-10T12:18:16;7.05;;;4.70;;
79755;SDS011;69239;50.678;12.280;2023-06-10T12:20:43;6.38;;;3.92;;
79755;SDS011;69239;50.678;12.280;2023-06-10T12:23:11;5.03;;;4.38;;
79755;SDS011;69239;50.678;12.280;2023-06-10T12:25:55;5.80;;;4.50;;
79755;SDS011;69239;50.678;12.280;2023-06-10T12:28:24;6.47;;;4.00;;
79755;SDS011;69239;50.678;12.280;2023-06-10T12:31:06;4.95;;;3.45;;
79755;SDS011;69239;50.678;12.280;2023-06-10T12:33:35;4.43;;;3.40;;
79755;SDS011;69239;50.678;12.280;2023-06-10T12:36:00;5.15;;;3.35;;
79755;SDS011;69239;50.678;12.280;2023-06-10T12:38:26;7.40;;;3.70;;
79755;SDS011;69239;50.678;12.280;2023-06-10T12:40:54;5.07;;;3.25;;
79755;SDS011;69239;50.678;12.280;2023-06-10T12:43:30;5.15;;;3.28;;
79755;SDS011;69239;50.678;12.280;2023-06-10T12:46:08;5.00;;;4.10;;
79755;SDS011;69239;50.678;12.280;2023-06-10T12:48:35;6.13;;;3.53;;
79755;SDS011;69239;50.678;12.280;2023-06-10T12:51:00;4.13;;;3.28;;
79755;SDS011;69239;50.678;12.280;2023-06-10T12:53:26;4.75;;;3.50;;
79755;SDS011;69239;50.678;12.280;2023-06-10T12:55:52;3.78;;;3.25;;
79755;SDS011;69239;50.678;12.280;2023-06-10T12:58:18;3.80;;;3.40;;
79755;SDS011;69239;50.678;12.280;2023-06-10T13:00:44;6.20;;;3.97;;
79755;SDS011;69239;50.678;12.280;2023-06-10T13:03:10;5.07;;;3.45;;
79755;SDS011;69239;50.678;12.280;2023-06-10T13:05:36;4.55;;;3.00;;
79755;SDS011;69239;50.678;12.280;2023-06-10T13:08:03;5.68;;;3.75;;
79755;SDS011;69239;50.678;12.280;2023-06-10T13:10:35;6.50;;;3.90;;
79755;SDS011;69239;50.678;12.280;2023-06-10T13:13:04;5.30;;;3.55;;
79755;SDS011;69239;50.678;12.280;2023-06-10T13:15:32;6.28;;;3.80;;
79755;SDS011;69239;50.678;12.280;2023-06-10T13:18:01;4.30;;;3.90;;
79755;SDS011;69239;50.678;12.280;2023-06-10T13:20:28;5.65;;;4.13;;
79755;SDS011;69239;50.678;12.280;2023-06-10T13:22:54;5.57;;;3.63;;
79755;SDS011;69239;50.678;12.280;2023-06-10T13:25:19;4.97;;;3.88;;
79755;SDS011;69239;50.678;12.280;2023-06-10T13:27:45;5.85;;;4.10;;
79755;SDS011;69239;50.678;12.280;2023-06-10T13:30:10;6.40;;;4.28;;
79755;SDS011;69239;50.678;12.280;2023-06-10T13:32:36;5.47;;;3.55;;
79755;SDS011;69239;50.678;12.280;2023-06-10T13:35:02;5.18;;;4.07;;
79755;SDS011;69239;50.678;12.280;2023-06-10T13:37:28;6.57;;;4.75;;
79755;SDS011;69239;50.678;12.280;2023-06-10T13:39:53;6.18;;;3.78;;
79755;SDS011;69239;50.678;12.280;2023-06-10T13:42:19;4.88;;;4.00;;
79755;SDS011;69239;50.678;12.280;2023-06-10T13:44:45;5.93;;;3.92;;
79755;SDS011;69239;50.678;12.280;2023-06-10T13:47:12;5.22;;;4.18;;
79755;SDS011;69239;50.678;12.280;2023-06-10T13:49:38;5.07;;;4.65;;
79755;SDS011;69239;50.678;12.280;2023-06-10T13:52:07;4.97;;;4.40;;
79755;SDS011;69239;50.678;12.280;2023-06-10T13:54:33;6.10;;;4.28;;
79755;SDS011;69239;50.678;12.280;2023-06-10T13:57:00;7.28;;;4.32;;
79755;SDS011;69239;50.678;12.280;2023-06-10T13:59:28;4.85;;;4.18;;
79755;SDS011;69239;50.678;12.280;2023-06-10T14:01:54;5.10;;;4.60;;
79755;SDS011;69239;50.678;12.280;2023-06-10T14:04:19;6.38;;;4.07;;
79755;SDS011;69239;50.678;12.280;2023-06-10T14:06:44;6.82;;;4.13;;
79755;SDS011;69239;50.678;12.280;2023-06-10T14:09:10;4.40;;;4.00;;
79755;SDS011;69239;50.678;12.280;2023-06-10T14:11:37;7.13;;;4.70;;
79755;SDS011;69239;50.678;12.280;2023-06-10T14:14:03;5.50;;;4.50;;
79755;SDS011;69239;50.678;12.280;2023-06-10T14:16:28;9.43;;;4.93;;
79755;SDS011;69239;50.678;12.280;2023-06-10T14:18:56;7.60;;;4.60;;
79755;SDS011;69239;50.678;12.280;2023-06-10T14:21:22;5.55;;;4.50;;
79755;SDS011;69239;50.678;12.280;2023-06-10T14:23:49;6.45;;;4.50;;
79755;SDS011;69239;50.678;12.280;2023-06-10T14:26:18;4.63;;;4.22;;
79755;SDS011;69239;50.678;12.280;2023-06-10T14:28:44;4.75;;;4.25;;
79755;SDS011;69239;50.678;12.280;2023-06-10T14:31:09;6.03;;;4.90;;
79755;SDS011;69239;50.678;12.280;2023-06-10T14:33:35;7.85;;;4.38;;
79755;SDS011;69239;50.678;12.280;2023-06-10T14:36:01;7.38;;;4.68;;
79755;SDS011;69239;50.678;12.280;2023-06-10T14:38:30;4.53;;;4.13;;
79755;SDS011;69239;50.678;12.280;2023-06-10T14:40:55;6.75;;;4.88;;
79755;SDS011;69239;50.678;12.280;2023-06-10T14:43:20;5.93;;;3.97;;
79755;SDS011;69239;50.678;12.280;2023-06-10T14:45:46;5.13;;;4.20;;
79755;SDS011;69239;50.678;12.280;2023-06-10T14:48:11;6.63;;;4.63;;
79755;SDS011;69239;50.678;12.280;2023-06-10T14:50:39;4.60;;;3.60;;
79755;SDS011;69239;50.678;12.280;2023-06-10T14:53:07;4.55;;;3.85;;
79755;SDS011;69239;50.678;12.280;2023-06-10T14:55:32;5.82;;;3.67;;